Time;durP1;ratioP1;P1;durP2;ratioP2;P2;SDS_P1;SDS_P2;PMS_P1;PMS_P2;Temp;Humidity;BMP_temperature;BMP_pressure;BME280_temperature;BME280_humidity;BME280_pressure;Samples;Min_cycle;Max_cycle;Signal;HPM_P1;HPM_P2
2023/06/03 00:00:59;;;;;;;5.63;3.10;;;15.80;99.90;;;;;;5092460;28;20475;-47
2023/06/03 00:03:27;;;;;;;4.60;3.23;;;15.70;99.90;;;;;;5090750;28;20437;-47
2023/06/03 00:05:54;;;;;;;4.10;2.93;;;15.70;99.90;;;;;;5092123;28;20465;-47
2023/06/03 00:08:21;;;;;;;5.20;2.80;;;15.70;99.90;;;;;;5092112;28;20530;-47
2023/06/03 00:10:48;;;;;;;5.50;3.80;;;15.70;99.90;;;;;;5092281;28;20447;-47
2023/06/03 00:13:15;;;;;;;4.73;2.97;;;15.70;99.90;;;;;;5092357;28;20992;-52
2023/06/03 00:15:42;;;;;;;4.30;3.13;;;15.60;99.90;;;;;;5092205;28;20495;-49
2023/06/03 00:18:10;;;;;;;5.47;3.60;;;15.60;99.90;;;;;;5091989;28;20529;-46
2023/06/03 00:20:37;;;;;;;3.93;2.73;;;15.50;99.90;;;;;;5092541;28;20522;-49
2023/06/03 00:23:05;;;;;;;4.40;3.03;;;15.60;99.90;;;;;;5091767;28;20439;-48
2023/06/03 00:25:32;;;;;;;5.07;3.33;;;15.60;99.90;;;;;;5092128;28;21041;-52
2023/06/03 00:27:59;;;;;;;4.00;2.87;;;15.60;99.90;;;;;;5092079;28;20750;-47
2023/06/03 00:30:26;;;;;;;5.17;3.83;;;15.50;99.90;;;;;;5092441;28;20973;-48
2023/06/03 00:32:53;;;;;;;4.30;3.17;;;15.50;99.90;;;;;;5091615;28;20555;-47
2023/06/03 00:35:22;;;;;;;5.33;3.53;;;15.50;99.90;;;;;;5091877;28;20517;-48
2023/06/03 00:37:49;;;;;;;4.00;3.20;;;15.40;99.90;;;;;;5091666;28;20442;-47
2023/06/03 00:40:16;;;;;;;4.07;3.13;;;15.30;99.90;;;;;;5091948;28;20526;-47
2023/06/03 00:42:42;;;;;;;6.37;3.03;;;15.30;99.90;;;;;;5091203;28;20982;-51
2023/06/03 00:45:10;;;;;;;5.80;3.60;;;15.20;99.90;;;;;;5091494;28;20799;-47
2023/06/03 00:47:37;;;;;;;5.20;3.80;;;15.20;99.90;;;;;;5091431;28;20534;-48
2023/06/03 00:50:06;;;;;;;4.90;3.43;;;15.20;99.90;;;;;;5091941;28;20450;-47
2023/06/03 00:52:35;;;;;;;5.63;3.33;;;15.20;99.90;;;;;;5095288;22;20720;-84
2023/06/03 00:55:03;;;;;;;4.30;3.00;;;15.20;99.90;;;;;;5069964;28;20928;-84
2023/06/03 00:57:30;;;;;;;4.37;2.80;;;15.20;99.90;;;;;;5070997;28;20936;-84
2023/06/03 00:59:57;;;;;;;4.10;3.20;;;15.10;99.90;;;;;;5091366;28;20457;-84
2023/06/03 01:02:24;;;;;;;3.90;3.23;;;15.10;99.90;;;;;;5092145;28;20529;-84
2023/06/03 01:04:51;;;;;;;4.73;3.70;;;15.20;99.90;;;;;;5089842;28;20442;-84
2023/06/03 01:07:27;;;;;;;4.93;3.30;;;15.20;99.90;;;;;;5091485;28;21020;-84
2023/06/03 01:10:03;;;;;;;5.53;3.13;;;15.20;99.90;;;;;;5092053;28;20494;-84
2023/06/03 01:12:34;;;;;;;4.90;3.00;;;15.20;99.90;;;;;;5091620;28;20503;-84
2023/06/03 01:15:06;;;;;;;3.87;3.20;;;15.20;99.90;;;;;;5091741;28;20979;-84
2023/06/03 01:17:39;;;;;;;5.20;3.23;;;15.10;99.90;;;;;;5091414;28;20961;-84
2023/06/03 01:20:09;;;;;;;5.83;3.50;;;15.00;99.90;;;;;;5091692;28;20823;-84
2023/06/03 01:22:41;;;;;;;4.17;3.40;;;15.00;99.90;;;;;;5091977;28;20508;-84
2023/06/03 01:25:11;;;;;;;5.00;3.20;;;15.00;99.90;;;;;;5091981;28;20529;-84
2023/06/03 01:27:38;;;;;;;6.73;3.60;;;15.10;99.90;;;;;;5091334;28;20529;-84
2023/06/03 01:30:08;;;;;;;4.10;3.10;;;15.10;99.90;;;;;;5091492;28;20818;-84
2023/06/03 01:32:36;;;;;;;5.00;4.10;;;15.10;99.90;;;;;;5091038;28;20529;-84
2023/06/03 01:35:04;;;;;;;5.10;3.87;;;15.10;99.90;;;;;;5091621;28;20871;-83
2023/06/03 01:37:32;;;;;;;4.07;3.67;;;15.10;99.90;;;;;;5091272;28;20442;-84
2023/06/03 01:40:01;;;;;;;5.00;3.03;;;15.10;99.90;;;;;;5091614;28;20532;-84
2023/06/03 01:42:30;;;;;;;4.13;3.40;;;15.10;99.90;;;;;;5091333;28;20887;-84
2023/06/03 01:44:58;;;;;;;4.17;3.77;;;15.10;99.90;;;;;;5091376;28;20940;-84
2023/06/03 01:47:26;;;;;;;3.60;2.93;;;15.10;99.90;;;;;;5091001;28;20469;-84
2023/06/03 01:49:53;;;;;;;4.17;3.77;;;15.10;99.90;;;;;;5090988;28;20463;-84
2023/06/03 01:52:20;;;;;;;4.40;3.57;;;15.10;99.90;;;;;;5091374;28;20483;-84
2023/06/03 01:54:47;;;;;;;4.50;3.53;;;15.10;99.90;;;;;;5087999;28;21020;-84
2023/06/03 01:57:16;;;;;;;6.80;3.33;;;15.10;99.90;;;;;;5089092;28;20972;-84
2023/06/03 01:59:44;;;;;;;4.57;3.27;;;15.00;99.90;;;;;;5089740;28;20465;-84
2023/06/03 02:02:11;;;;;;;6.67;3.37;;;14.80;99.90;;;;;;5091424;28;20536;-84
2023/06/03 02:04:38;;;;;;;3.27;2.70;;;14.80;99.90;;;;;;5089073;28;20492;-84
2023/06/03 02:07:06;;;;;;;5.23;3.30;;;14.80;99.90;;;;;;5090983;28;20988;-84
2023/06/03 02:09:33;;;;;;;4.27;3.30;;;14.80;99.90;;;;;;5089616;28;20872;-84
2023/06/03 02:12:01;;;;;;;5.90;3.27;;;14.80;99.90;;;;;;5094568;28;20917;-84
2023/06/03 02:14:29;;;;;;;4.70;3.00;;;14.80;99.90;;;;;;5094757;28;20501;-84
2023/06/03 02:16:59;;;;;;;4.60;3.10;;;14.80;99.90;;;;;;5094595;28;20445;-84
2023/06/03 02:19:26;;;;;;;4.03;2.80;;;14.70;99.90;;;;;;5094714;28;20514;-84
2023/06/03 02:21:56;;;;;;;3.83;3.43;;;14.70;99.90;;;;;;5095069;28;20815;-84
2023/06/03 02:24:23;;;;;;;4.20;3.00;;;14.70;99.90;;;;;;5094575;28;20502;-84
2023/06/03 02:26:52;;;;;;;3.83;3.27;;;14.60;99.90;;;;;;5094659;28;20538;-84
2023/06/03 02:29:20;;;;;;;4.50;3.00;;;14.50;99.90;;;;;;5094612;28;20597;-84
2023/06/03 02:31:47;;;;;;;6.30;4.07;;;14.50;99.90;;;;;;5106613;28;20471;-84
2023/06/03 02:34:15;;;;;;;4.37;3.20;;;14.40;99.90;;;;;;5094893;28;20567;-84
2023/06/03 02:36:43;;;;;;;4.80;4.00;;;14.40;99.90;;;;;;5094390;28;20474;-84
2023/06/03 02:39:11;;;;;;;4.83;3.97;;;14.30;99.90;;;;;;5094544;28;20991;-84
2023/06/03 02:41:39;;;;;;;5.03;3.17;;;14.30;99.90;;;;;;5094699;28;20442;-84
2023/06/03 02:44:06;;;;;;;4.37;3.07;;;14.40;99.90;;;;;;5094286;28;20442;-84
2023/06/03 02:46:33;;;;;;;4.50;3.60;;;14.50;99.90;;;;;;5094171;28;20540;-84
2023/06/03 02:49:04;;;;;;;3.53;2.80;;;14.50;99.90;;;;;;5094349;28;20464;-84
2023/06/03 02:51:32;;;;;;;4.77;3.47;;;14.50;99.90;;;;;;5093915;28;20472;-84
2023/06/03 02:53:59;;;;;;;4.20;3.17;;;14.50;99.90;;;;;;5090556;28;20476;-84
2023/06/03 02:56:26;;;;;;;4.40;3.70;;;14.50;99.90;;;;;;5090940;28;20447;-84
2023/06/03 02:58:54;;;;;;;4.60;3.10;;;14.50;99.90;;;;;;5092751;28;21048;-84
2023/06/03 03:01:22;;;;;;;4.07;3.13;;;14.50;99.90;;;;;;5092886;28;20975;-84
2023/06/03 03:03:49;;;;;;;4.10;3.23;;;14.50;99.90;;;;;;5090752;28;20447;-84
2023/06/03 03:06:19;;;;;;;4.70;3.50;;;14.50;99.90;;;;;;5092293;28;20891;-84
2023/06/03 03:08:48;;;;;;;4.57;3.50;;;14.50;99.90;;;;;;5094314;28;20802;-84
2023/06/03 03:11:15;;;;;;;5.90;3.73;;;14.50;99.90;;;;;;5093727;28;20484;-84
2023/06/03 03:13:43;;;;;;;5.30;3.40;;;14.50;99.90;;;;;;5093525;28;20513;-84
2023/06/03 03:16:10;;;;;;;5.13;3.03;;;14.50;99.90;;;;;;5093328;28;20472;-84
2023/06/03 03:18:38;;;;;;;5.43;3.13;;;14.40;99.90;;;;;;5093586;28;20507;-84
2023/06/03 03:21:05;;;;;;;4.77;3.60;;;14.40;99.90;;;;;;5094012;28;20475;-84
2023/06/03 03:23:33;;;;;;;5.43;3.60;;;14.30;99.90;;;;;;5093006;28;20451;-84
2023/06/03 03:26:02;;;;;;;3.67;2.90;;;14.30;99.90;;;;;;5082330;28;20533;-84
2023/06/03 03:28:29;;;;;;;4.50;3.37;;;14.30;99.90;;;;;;5073250;28;20466;-84
2023/06/03 03:30:56;;;;;;;4.50;3.33;;;14.30;99.90;;;;;;5074102;28;20447;-84
2023/06/03 03:33:24;;;;;;;4.67;3.40;;;14.30;99.90;;;;;;5073297;28;20469;-84
2023/06/03 03:35:51;;;;;;;4.40;3.23;;;14.30;99.90;;;;;;5073799;28;20448;-84
2023/06/03 03:38:19;;;;;;;5.30;3.03;;;14.30;99.90;;;;;;5073082;28;20508;-84
2023/06/03 03:40:46;;;;;;;4.23;3.10;;;14.20;99.90;;;;;;5073666;28;20481;-84
2023/06/03 03:43:17;;;;;;;4.00;3.20;;;14.20;99.90;;;;;;5072826;28;21009;-84
2023/06/03 03:45:44;;;;;;;4.00;3.30;;;14.20;99.90;;;;;;5073257;28;20878;-84
2023/06/03 03:48:14;;;;;;;4.17;3.50;;;14.30;99.90;;;;;;5072852;28;20518;-84
2023/06/03 03:50:43;;;;;;;4.20;3.33;;;14.30;99.90;;;;;;5073194;28;20541;-84
2023/06/03 03:53:12;;;;;;;4.07;3.47;;;14.30;99.90;;;;;;5080848;28;20472;-84
2023/06/03 03:55:41;;;;;;;5.20;3.50;;;14.30;99.90;;;;;;5089656;28;20783;-84
2023/06/03 03:58:23;;;;;;;5.07;3.87;;;14.30;99.90;;;;;;5092809;28;20459;-84
2023/06/03 04:00:50;;;;;;;4.23;3.83;;;14.30;99.90;;;;;;5093260;28;20446;-83
2023/06/03 04:03:19;;;;;;;3.70;3.30;;;14.30;99.90;;;;;;5092561;28;20837;-84
2023/06/03 04:05:47;;;;;;;5.60;3.50;;;14.30;99.90;;;;;;5092770;28;20454;-84
2023/06/03 04:08:32;;;;;;;4.63;3.50;;;14.20;99.90;;;;;;5092434;28;20504;-84
2023/06/03 04:11:00;;;;;;;6.30;3.67;;;14.20;99.90;;;;;;5092771;28;20474;-84
2023/06/03 04:13:28;;;;;;;5.17;3.53;;;14.20;99.90;;;;;;5092363;28;20475;-84
2023/06/03 04:16:00;;;;;;;4.10;3.20;;;14.20;99.90;;;;;;5092705;28;20480;-84
2023/06/03 04:18:27;;;;;;;4.60;3.27;;;14.20;99.90;;;;;;5092524;28;20460;-84
2023/06/03 04:20:59;;;;;;;4.43;3.37;;;14.20;99.90;;;;;;5092524;28;20446;-84
2023/06/03 04:23:29;;;;;;;5.07;3.60;;;14.20;99.90;;;;;;5092255;28;20486;-84
2023/06/03 04:25:55;;;;;;;4.77;3.30;;;14.20;99.90;;;;;;5092607;28;20437;-84
2023/06/03 04:28:22;;;;;;;6.23;3.60;;;14.20;99.90;;;;;;5092258;28;20517;-84
2023/06/03 04:30:51;;;;;;;4.97;3.80;;;14.20;99.90;;;;;;5092702;28;20853;-84
2023/06/03 04:33:18;;;;;;;6.53;3.73;;;14.10;99.90;;;;;;5091574;28;20937;-84
2023/06/03 04:35:45;;;;;;;4.70;3.30;;;14.10;99.90;;;;;;5091868;28;20525;-84
2023/06/03 04:38:12;;;;;;;4.40;3.33;;;14.00;99.90;;;;;;5090592;28;20867;-84
2023/06/03 04:40:39;;;;;;;6.93;3.67;;;14.10;99.90;;;;;;5090469;28;20467;-84
2023/06/03 04:43:07;;;;;;;4.57;4.03;;;14.10;99.90;;;;;;5090387;28;20537;-84
2023/06/03 04:45:34;;;;;;;5.90;3.17;;;14.10;99.90;;;;;;5090878;28;20444;-84
2023/06/03 04:48:03;;;;;;;4.23;2.90;;;14.20;99.90;;;;;;5090483;28;20553;-84
2023/06/03 04:50:35;;;;;;;5.17;3.43;;;14.20;99.90;;;;;;5090794;28;20686;-84
2023/06/03 04:53:02;;;;;;;4.40;3.40;;;14.30;99.90;;;;;;5091351;28;20456;-84
2023/06/03 04:55:30;;;;;;;3.83;3.00;;;14.30;99.90;;;;;;5088406;28;20993;-84
2023/06/03 04:58:00;;;;;;;4.03;3.67;;;14.30;99.90;;;;;;5091501;28;20495;-84
2023/06/03 05:00:27;;;;;;;5.53;3.50;;;14.30;99.90;;;;;;5092362;28;20488;-84
2023/06/03 05:02:59;;;;;;;5.70;3.63;;;14.30;99.90;;;;;;5091266;28;20472;-84
2023/06/03 05:05:28;;;;;;;4.97;3.60;;;14.30;99.90;;;;;;5089827;28;20950;-84
2023/06/03 05:07:54;;;;;;;4.30;3.90;;;14.30;99.90;;;;;;5091631;28;20474;-84
2023/06/03 05:10:21;;;;;;;6.70;3.53;;;14.30;99.90;;;;;;5091633;28;20488;-84
2023/06/03 05:12:49;;;;;;;4.00;2.73;;;14.30;99.90;;;;;;5091521;28;20535;-84
2023/06/03 05:15:16;;;;;;;4.00;3.63;;;14.40;99.90;;;;;;5091953;28;20571;-85
2023/06/03 05:17:43;;;;;;;5.73;4.20;;;14.40;99.90;;;;;;5091469;28;20480;-85
2023/06/03 05:20:11;;;;;;;4.47;3.50;;;14.40;99.90;;;;;;5091788;28;20515;-85
2023/06/03 05:22:39;;;;;;;6.00;4.53;;;14.50;99.90;;;;;;5091413;28;20526;-85
2023/06/03 05:25:07;;;;;;;4.63;3.80;;;14.50;99.90;;;;;;5090996;28;20533;-84
2023/06/03 05:27:34;;;;;;;6.07;3.27;;;14.50;99.90;;;;;;5088549;28;20534;-84
2023/06/03 05:30:01;;;;;;;4.77;3.53;;;14.50;99.90;;;;;;5090485;28;20471;-84
2023/06/03 05:32:28;;;;;;;5.37;3.80;;;14.50;99.90;;;;;;5090989;28;20853;-85
2023/06/03 05:34:54;;;;;;;4.70;3.87;;;14.50;99.90;;;;;;5090740;28;20503;-84
2023/06/03 05:37:22;;;;;;;5.63;4.40;;;14.50;99.90;;;;;;5090995;28;20946;-85
2023/06/03 05:39:50;;;;;;;5.40;4.33;;;14.50;99.90;;;;;;5091188;28;20441;-84
2023/06/03 05:42:17;;;;;;;5.63;4.37;;;14.50;99.90;;;;;;5090934;28;21031;-85
2023/06/03 05:44:45;;;;;;;5.27;4.37;;;14.50;99.90;;;;;;5090260;28;20808;-85
2023/06/03 05:47:12;;;;;;;3.63;2.93;;;14.40;99.90;;;;;;5094595;28;20438;-85
2023/06/03 05:49:39;;;;;;;6.57;4.17;;;14.30;99.90;;;;;;5095124;28;20552;-84
2023/06/03 05:52:06;;;;;;;4.60;3.20;;;14.30;99.90;;;;;;5089831;28;20505;-85
2023/06/03 05:54:33;;;;;;;4.40;3.00;;;14.20;99.90;;;;;;5090017;28;20565;-84
2023/06/03 05:57:01;;;;;;;5.03;3.30;;;14.20;99.90;;;;;;5090564;28;20612;-85
2023/06/03 05:59:28;;;;;;;5.37;4.20;;;14.20;99.90;;;;;;5093419;28;20465;-84
2023/06/03 06:01:55;;;;;;;5.17;3.73;;;14.30;99.90;;;;;;5094744;28;20429;-85
2023/06/03 06:04:23;;;;;;;4.43;3.67;;;;;;;;;;5093199;28;20472;-84
2023/06/03 06:06:50;;;;;;;4.00;3.20;;;;;;;;;;5108828;28;20475;-84
2023/06/03 06:09:17;;;;;;;5.10;3.60;;;;;;;;;;5100496;28;20968;-84
2023/06/03 06:11:44;;;;;;;3.87;3.17;;;;;;;;;;5085731;28;20481;-84
2023/06/03 06:14:13;;;;;;;5.67;4.10;;;15.60;99.90;;;;;;5089086;28;20514;-84
2023/06/03 06:16:40;;;;;;;9.13;3.80;;;15.60;99.90;;;;;;5092205;28;20443;-84
2023/06/03 06:19:07;;;;;;;4.50;3.40;;;15.70;99.90;;;;;;5094679;28;20470;-85
2023/06/03 06:21:33;;;;;;;6.00;3.33;;;15.60;99.90;;;;;;5092361;28;20426;-85
2023/06/03 06:24:04;;;;;;;4.50;2.60;;;15.50;99.90;;;;;;5090509;28;20522;-85
2023/06/03 06:26:31;;;;;;;4.23;3.37;;;15.60;99.90;;;;;;5091011;28;20438;-84
2023/06/03 06:28:58;;;;;;;3.93;3.30;;;15.80;99.90;;;;;;5094610;28;20492;-84
2023/06/03 06:31:26;;;;;;;4.63;3.10;;;15.90;99.90;;;;;;5094230;28;20528;-84
2023/06/03 06:33:53;;;;;;;4.33;3.53;;;16.00;99.90;;;;;;5093969;28;20851;-84
2023/06/03 06:36:31;;;;;;;5.07;3.60;;;15.80;99.90;;;;;;5093740;28;20546;-84
2023/06/03 06:38:59;;;;;;;5.20;3.63;;;15.80;99.90;;;;;;5090999;28;21028;-84
2023/06/03 06:41:27;;;;;;;4.30;3.53;;;15.80;99.90;;;;;;5089006;28;20446;-84
2023/06/03 06:43:55;;;;;;;4.77;3.43;;;15.80;99.90;;;;;;5088978;28;20439;-84
2023/06/03 06:46:23;;;;;;;4.03;3.63;;;15.90;99.90;;;;;;5093530;28;20495;-84
2023/06/03 06:48:51;;;;;;;4.33;3.17;;;16.00;99.90;;;;;;5090317;28;20951;-84
2023/06/03 06:51:19;;;;;;;5.93;3.60;;;16.00;99.90;;;;;;5093180;28;20543;-83
2023/06/03 06:53:48;;;;;;;5.03;4.33;;;16.00;99.90;;;;;;5090750;28;20478;-84
2023/06/03 06:56:18;;;;;;;6.90;3.57;;;16.10;99.90;;;;;;5083140;28;20564;-84
2023/06/03 06:58:45;;;;;;;4.40;3.50;;;16.10;99.90;;;;;;5092943;28;20464;-85
2023/06/03 07:01:12;;;;;;;5.17;3.43;;;16.10;99.90;;;;;;5093966;28;20522;-83
2023/06/03 07:03:39;;;;;;;4.73;3.47;;;16.20;99.90;;;;;;5091480;28;20869;-84
2023/06/03 07:06:08;;;;;;;4.17;3.23;;;16.10;99.90;;;;;;5093631;28;20989;-84
2023/06/03 07:08:35;;;;;;;5.13;3.67;;;16.20;99.90;;;;;;5097892;28;20455;-83
2023/06/03 07:11:03;;;;;;;4.87;3.83;;;16.30;99.90;;;;;;5098211;28;20432;-83
2023/06/03 07:13:31;;;;;;;6.40;4.07;;;16.30;99.90;;;;;;5098691;28;20473;-83
2023/06/03 07:15:58;;;;;;;4.70;3.77;;;16.50;99.90;;;;;;5098536;28;20512;-83
2023/06/03 07:18:25;;;;;;;4.53;3.33;;;16.60;99.90;;;;;;5095176;28;20516;-82
2023/06/03 07:20:52;;;;;;;4.47;3.90;;;16.60;99.90;;;;;;5098734;28;20445;-83
2023/06/03 07:23:25;;;;;;;5.13;4.03;;;16.70;99.90;;;;;;5099764;28;20441;-83
2023/06/03 07:25:53;;;;;;;5.67;4.17;;;16.80;99.90;;;;;;5097005;28;20457;-83
2023/06/03 07:28:21;;;;;;;4.43;4.00;;;16.80;99.90;;;;;;5097770;28;20467;-84
2023/06/03 07:30:52;;;;;;;4.60;3.67;;;16.80;99.90;;;;;;5097388;28;20433;-83
2023/06/03 07:33:27;;;;;;;4.73;3.50;;;16.90;99.90;;;;;;5097622;28;20446;-83
2023/06/03 07:35:55;;;;;;;6.03;4.07;;;17.00;99.90;;;;;;5096405;28;20510;-83
2023/06/03 07:38:55;;;;;;;4.60;3.60;;;17.10;99.90;;;;;;5099172;28;20447;-85
2023/06/03 07:41:37;;;;;;;5.60;4.00;;;17.30;99.90;;;;;;5098894;28;20449;-84
2023/06/03 07:44:06;;;;;;;4.33;3.93;;;17.30;99.90;;;;;;5097922;28;20442;-83
2023/06/03 07:46:41;;;;;;;5.73;4.67;;;17.40;99.90;;;;;;5090834;28;20464;-83
2023/06/03 07:49:09;;;;;;;7.13;3.93;;;17.60;99.90;;;;;;5080482;28;20496;-83
2023/06/03 07:51:39;;;;;;;4.77;3.20;;;17.70;99.90;;;;;;5074931;28;21308;-84
2023/06/03 07:54:08;;;;;;;5.43;4.70;;;17.70;99.90;;;;;;5081495;28;20874;-83
2023/06/03 07:56:35;;;;;;;5.27;4.00;;;17.90;99.90;;;;;;5089206;28;20508;-83
2023/06/03 07:59:04;;;;;;;4.23;3.70;;;17.90;99.90;;;;;;5083869;28;20482;-83
2023/06/03 08:01:32;;;;;;;3.97;3.60;;;17.90;99.90;;;;;;5088683;28;20474;-83
2023/06/03 08:04:00;;;;;;;5.50;4.20;;;18.00;99.90;;;;;;5088402;28;20525;-83
2023/06/03 08:06:28;;;;;;;5.60;4.90;;;18.10;99.90;;;;;;5088582;28;20449;-83
2023/06/03 08:08:56;;;;;;;4.60;3.60;;;18.20;99.90;;;;;;5088504;28;20485;-83
2023/06/03 08:11:25;;;;;;;5.47;4.00;;;18.30;99.90;;;;;;5088956;28;20533;-82
2023/06/03 08:13:55;;;;;;;4.60;4.10;;;18.40;99.90;;;;;;5088979;28;20473;-83
2023/06/03 08:16:22;;;;;;;5.40;4.03;;;18.60;99.90;;;;;;5080965;28;20482;-83
2023/06/03 08:18:54;;;;;;;3.50;2.90;;;18.70;99.90;;;;;;5087412;28;20495;-83
2023/06/03 08:21:27;;;;;;;4.00;3.17;;;18.70;99.90;;;;;;5088837;28;20456;-83
2023/06/03 08:23:54;;;;;;;5.17;4.17;;;18.70;99.90;;;;;;5088599;28;20533;-83
2023/06/03 08:26:22;;;;;;;6.60;4.00;;;18.80;99.90;;;;;;5088801;28;20544;-83
2023/06/03 08:28:50;;;;;;;5.97;4.53;;;19.10;99.90;;;;;;5089507;28;20467;-84
2023/06/03 08:31:17;;;;;;;6.07;4.47;;;19.10;99.90;;;;;;5080182;28;20471;-84
2023/06/03 08:33:44;;;;;;;5.93;4.30;;;19.10;99.90;;;;;;5068457;28;20502;-84
2023/06/03 08:36:11;;;;;;;5.97;5.37;;;19.20;99.90;;;;;;5084414;28;21068;-84
2023/06/03 08:38:40;;;;;;;5.10;4.03;;;19.20;99.90;;;;;;5084331;28;20460;-84
2023/06/03 08:41:07;;;;;;;5.53;3.73;;;19.30;99.90;;;;;;5086878;28;20432;-84
2023/06/03 08:43:44;;;;;;;6.23;4.10;;;19.40;99.90;;;;;;5087536;28;20440;-84
2023/06/03 08:46:23;;;;;;;4.23;3.30;;;19.50;99.90;;;;;;5085320;28;20443;-84
2023/06/03 08:48:57;;;;;;;4.37;3.70;;;19.60;99.90;;;;;;5085529;28;20486;-84
2023/06/03 08:51:27;;;;;;;6.00;4.50;;;19.60;99.90;;;;;;5087120;28;20481;-84
2023/06/03 08:53:55;;;;;;;4.73;4.23;;;19.70;99.90;;;;;;5082924;28;20991;-84
2023/06/03 08:56:23;;;;;;;8.23;4.40;;;19.70;99.90;;;;;;5084138;28;20710;-84
2023/06/03 08:58:53;;;;;;;6.63;4.60;;;19.70;99.90;;;;;;5084596;28;20519;-84
2023/06/03 09:01:27;;;;;;;5.03;3.57;;;19.60;99.90;;;;;;5087182;28;20731;-83
2023/06/03 09:03:55;;;;;;;7.33;3.63;;;19.70;99.90;;;;;;5074723;28;21173;-83
2023/06/03 09:06:22;;;;;;;6.80;4.73;;;19.80;99.90;;;;;;5080818;28;20522;-83
2023/06/03 09:08:51;;;;;;;5.13;4.10;;;19.90;99.90;;;;;;5086295;28;20912;-82
2023/06/03 09:11:20;;;;;;;7.67;3.87;;;20.10;99.90;;;;;;5086511;28;20454;-84
2023/06/03 09:13:48;;;;;;;4.73;3.27;;;20.20;99.90;;;;;;5086614;28;21144;-82
2023/06/03 09:16:17;;;;;;;5.63;4.67;;;20.40;99.90;;;;;;5083748;28;20590;-79
2023/06/03 09:18:47;;;;;;;4.07;3.50;;;20.50;99.90;;;;;;5081481;28;20471;-80
2023/06/03 09:21:15;;;;;;;4.43;3.63;;;20.60;99.90;;;;;;5080787;28;20466;-80
2023/06/03 09:23:42;;;;;;;9.03;5.90;;;20.70;99.90;;;;;;5078465;28;20884;-80
2023/06/03 09:26:09;;;;;;;7.47;5.10;;;20.80;99.90;;;;;;5084022;28;20439;-79
2023/06/03 09:28:36;;;;;;;6.47;4.40;;;20.80;99.90;;;;;;5081421;28;20499;-83
2023/06/03 09:31:06;;;;;;;8.20;5.70;;;20.90;99.90;;;;;;5090848;28;20469;-84
2023/06/03 09:33:33;;;;;;;7.40;4.90;;;21.10;99.90;;;;;;5084310;28;20464;-84
2023/06/03 09:36:09;;;;;;;6.53;4.83;;;21.20;99.90;;;;;;5091004;28;20490;-83
2023/06/03 09:38:49;;;;;;;5.80;5.20;;;21.40;99.90;;;;;;5089573;28;21051;-83
2023/06/03 09:41:17;;;;;;;5.17;4.03;;;21.50;99.90;;;;;;5090127;28;20452;-83
2023/06/03 09:43:58;;;;;;;8.27;5.90;;;21.60;99.90;;;;;;5090242;28;20518;-84
2023/06/03 09:46:26;;;;;;;6.70;5.43;;;21.70;99.90;;;;;;5080936;28;21050;-83
2023/06/03 09:48:53;;;;;;;7.30;5.70;;;21.80;99.90;;;;;;5070930;28;20579;-83
2023/06/03 09:51:39;;;;;;;6.17;4.90;;;21.80;99.90;;;;;;5088201;28;20452;-83
2023/06/03 09:54:11;;;;;;;6.30;5.13;;;21.90;99.90;;;;;;5083658;28;20455;-83
2023/06/03 09:56:38;;;;;;;8.37;5.87;;;22.00;99.90;;;;;;5090388;28;20482;-83
2023/06/03 09:59:16;;;;;;;7.27;4.43;;;22.10;99.90;;;;;;5090578;28;20879;-84
2023/06/03 10:01:45;;;;;;;6.20;5.60;;;22.10;99.90;;;;;;5090678;28;20450;-83
2023/06/03 10:04:12;;;;;;;6.13;5.23;;;22.20;99.90;;;;;;5090541;28;20550;-83
2023/06/03 10:06:41;;;;;;;7.70;5.40;;;;;;;;;;5090786;28;20493;-83
2023/06/03 10:09:22;;;;;;;5.63;5.00;;;22.30;99.90;;;;;;5090721;28;20503;-83
2023/06/03 10:11:50;;;;;;;8.30;5.80;;;22.40;99.90;;;;;;5091992;28;20928;-83
2023/06/03 10:14:22;;;;;;;8.27;5.57;;;22.40;99.90;;;;;;5088588;28;20450;-83
2023/06/03 10:17:07;;;;;;;9.83;5.93;;;22.40;99.90;;;;;;5089595;28;20475;-82
2023/06/03 10:19:35;;;;;;;7.40;5.80;;;22.50;99.90;;;;;;5090658;28;20468;-82
2023/06/03 10:22:05;;;;;;;6.40;5.40;;;22.40;99.90;;;;;;5090817;28;20535;-83
2023/06/03 10:24:34;;;;;;;5.83;5.00;;;22.40;99.90;;;;;;5089923;28;20439;-83
2023/06/03 10:27:02;;;;;;;5.77;4.73;;;22.50;99.90;;;;;;5090400;28;20460;-83
2023/06/03 10:29:30;;;;;;;7.33;5.63;;;22.50;99.90;;;;;;5090408;28;20468;-83
2023/06/03 10:31:58;;;;;;;7.50;5.90;;;22.50;99.90;;;;;;5092606;28;20460;-83
2023/06/03 10:34:25;;;;;;;6.40;4.50;;;22.50;99.90;;;;;;5094001;28;20512;-84
2023/06/03 10:36:56;;;;;;;6.90;4.73;;;22.50;99.90;;;;;;5093754;28;20499;-84
2023/06/03 10:39:26;;;;;;;6.17;5.20;;;22.60;99.90;;;;;;5091819;28;20465;-82
2023/06/03 10:41:55;;;;;;;5.97;4.90;;;22.70;99.90;;;;;;5093513;28;20439;-83
2023/06/03 10:44:22;;;;;;;6.70;5.00;;;22.70;99.90;;;;;;5092589;28;20439;-83
2023/06/03 10:46:56;;;;;;;5.27;4.57;;;22.60;99.90;;;;;;5093316;28;20471;-83
2023/06/03 10:49:28;;;;;;;6.13;4.97;;;22.60;99.90;;;;;;5093210;28;20462;-83
2023/06/03 10:52:08;;;;;;;8.00;6.90;;;22.80;99.90;;;;;;5090619;28;20527;-84
2023/06/03 10:54:48;;;;;;;5.97;5.37;;;22.90;99.90;;;;;;5061070;28;20635;-84
2023/06/03 10:57:18;;;;;;;6.20;5.00;;;22.90;99.90;;;;;;5069393;28;20582;-84
2023/06/03 10:59:47;;;;;;;10.73;5.20;;;22.80;99.90;;;;;;5067506;28;20496;-84
2023/06/03 11:02:16;;;;;;;6.63;5.00;;;22.80;99.90;;;;;;5070267;28;20453;-84
2023/06/03 11:04:43;;;;;;;7.67;4.53;;;22.80;99.90;;;;;;5068575;28;20520;-83
2023/06/03 11:07:43;;;;;;;6.00;4.60;;;22.90;99.90;;;;;;5066152;28;20567;-84
2023/06/03 11:10:41;;;;;;;5.83;5.23;;;23.00;99.90;;;;;;5070771;28;20460;-83
2023/06/03 11:13:10;;;;;;;12.90;8.07;;;23.10;99.90;;;;;;5061010;28;20593;-84
2023/06/03 11:16:00;;;;;;;7.80;4.10;;;23.10;99.90;;;;;;5071387;28;20451;-84
2023/06/03 11:18:27;;;;;;;10.10;5.30;;;23.10;99.90;;;;;;5070849;28;20551;-84
2023/06/03 11:20:54;;;;;;;9.53;5.03;;;23.10;99.90;;;;;;5071493;28;20480;-84
2023/06/03 11:23:41;;;;;;;7.43;4.73;;;23.20;99.90;;;;;;5070925;28;20453;-84
2023/06/03 11:26:35;;;;;;;9.40;5.07;;;23.30;99.80;;;;;;5063217;28;20933;-83
2023/06/03 11:29:04;;;;;;;6.30;4.53;;;23.20;99.90;;;;;;5070749;28;20465;-84
2023/06/03 11:31:32;;;;;;;8.00;5.50;;;23.10;99.90;;;;;;5071171;28;20444;-84
2023/06/03 11:34:22;;;;;;;7.00;5.30;;;23.00;99.90;;;;;;5070660;28;20543;-83
2023/06/03 11:36:51;;;;;;;7.53;5.03;;;23.10;99.90;;;;;;5069853;28;20971;-84
2023/06/03 11:39:18;;;;;;;5.90;4.80;;;23.30;99.90;;;;;;5068073;28;20477;-84
2023/06/03 11:42:04;;;;;;;6.30;4.80;;;23.30;99.90;;;;;;5069719;28;20457;-83
2023/06/03 11:44:31;;;;;;;7.50;5.00;;;23.30;99.90;;;;;;5068602;28;21160;-84
2023/06/03 11:46:58;;;;;;;7.20;4.97;;;23.30;99.90;;;;;;5070908;28;20524;-85
2023/06/03 11:49:25;;;;;;;5.10;4.30;;;23.30;99.70;;;;;;5069906;28;20560;-84
2023/06/03 11:51:57;;;;;;;9.10;4.87;;;23.30;99.90;;;;;;5068192;28;20494;-85
2023/06/03 11:54:24;;;;;;;7.43;4.87;;;23.50;99.90;;;;;;5085438;28;20482;-85
2023/06/03 11:56:52;;;;;;;5.47;4.60;;;23.60;99.90;;;;;;5091440;28;20480;-84
2023/06/03 11:59:26;;;;;;;5.57;4.50;;;23.80;99.90;;;;;;5091110;28;20562;-84
2023/06/03 12:02:00;;;;;;;6.27;4.00;;;23.80;99.90;;;;;;5090191;28;20530;-85
2023/06/03 12:04:27;;;;;;;6.10;4.43;;;23.80;99.90;;;;;;5092007;28;20497;-85
2023/06/03 12:06:54;;;;;;;5.03;3.93;;;23.80;99.30;;;;;;5092374;28;20873;-85
2023/06/03 12:09:23;;;;;;;5.43;4.60;;;23.80;99.90;;;;;;5079771;28;20503;-85
2023/06/03 12:11:50;;;;;;;9.97;5.63;;;23.70;99.90;;;;;;5088174;28;20500;-85
2023/06/03 12:14:33;;;;;;;5.23;4.60;;;23.80;99.70;;;;;;5093635;28;20447;-85
2023/06/03 12:17:10;;;;;;;5.33;4.07;;;24.00;98.90;;;;;;5093705;28;20478;-85
2023/06/03 12:19:39;;;;;;;12.40;5.37;;;24.00;99.10;;;;;;5094674;28;20494;-85
2023/06/03 12:22:06;;;;;;;6.90;4.90;;;24.10;98.30;;;;;;5095005;28;20825;-85
2023/06/03 12:24:34;;;;;;;5.17;4.10;;;24.10;98.60;;;;;;5094032;28;20435;-85
2023/06/03 12:27:12;;;;;;;9.40;4.57;;;24.20;99.30;;;;;;5093872;28;20466;-85
2023/06/03 12:29:45;;;;;;;9.30;4.60;;;24.10;98.70;;;;;;5093766;28;20447;-85
2023/06/03 12:32:12;;;;;;;5.60;4.40;;;23.80;97.50;;;;;;5093808;28;20419;-85
2023/06/03 12:34:39;;;;;;;5.00;4.13;;;23.70;98.70;;;;;;5093931;28;20505;-85
2023/06/03 12:37:07;;;;;;;6.63;4.63;;;23.50;97.20;;;;;;5094054;28;20886;-84
2023/06/03 12:39:48;;;;;;;5.00;4.03;;;23.50;98.30;;;;;;5072720;28;20452;-85
2023/06/03 12:42:16;;;;;;;6.60;4.97;;;23.40;99.40;;;;;;5074231;28;20467;-85
2023/06/03 12:44:49;;;;;;;8.40;4.97;;;23.30;98.40;;;;;;5073192;28;20443;-85
2023/06/03 12:47:18;;;;;;;4.93;4.37;;;23.20;98.20;;;;;;5072629;28;20881;-86
2023/06/03 12:49:46;;;;;;;7.30;4.60;;;23.10;99.60;;;;;;5081119;28;20463;-85
2023/06/03 12:52:15;;;;;;;7.00;4.67;;;23.10;99.90;;;;;;5071249;28;20472;-84
2023/06/03 12:54:44;;;;;;;6.20;5.00;;;23.10;99.10;;;;;;5091254;28;20467;-84
2023/06/03 12:57:11;;;;;;;5.93;5.07;;;23.10;99.40;;;;;;5093304;28;20504;-85
2023/06/03 13:00:05;;;;;;;5.50;4.20;;;23.00;98.00;;;;;;5094029;28;20956;-85